sensor_id;sensor_type;location;lat;lon;timestamp;P1;durP1;ratioP1;P2;durP2;ratioP2
71963;SDS011;59834;52.124;5.422;2022-08-19T00:01:58;2.25;;;1.50;;
71963;SDS011;59834;52.124;5.422;2022-08-19T00:04:39;5.78;;;1.48;;
71963;SDS011;59834;52.124;5.422;2022-08-19T00:07:23;2.90;;;1.27;;
71963;SDS011;59834;52.124;5.422;2022-08-19T00:13:07;6.40;;;1.70;;
71963;SDS011;59834;52.124;5.422;2022-08-19T00:15:37;2.42;;;1.90;;
71963;SDS011;59834;52.124;5.422;2022-08-19T00:18:28;3.30;;;2.47;;
71963;SDS011;59834;52.124;5.422;2022-08-19T00:21:31;2.65;;;2.33;;
71963;SDS011;59834;52.124;5.422;2022-08-19T00:24:01;3.27;;;2.40;;
71963;SDS011;59834;52.124;5.422;2022-08-19T00:26:51;4.05;;;2.70;;
71963;SDS011;59834;52.124;5.422;2022-08-19T00:29:51;5.40;;;2.75;;
71963;SDS011;59834;52.124;5.422;2022-08-19T00:33:09;3.78;;;2.40;;
71963;SDS011;59834;52.124;5.422;2022-08-19T00:35:38;5.85;;;3.08;;
71963;SDS011;59834;52.124;5.422;2022-08-19T00:38:21;6.63;;;3.93;;
71963;SDS011;59834;52.124;5.422;2022-08-19T00:41:05;3.90;;;2.53;;
71963;SDS011;59834;52.124;5.422;2022-08-19T00:43:34;2.88;;;2.58;;
71963;SDS011;59834;52.124;5.422;2022-08-19T00:46:06;2.75;;;2.33;;
71963;SDS011;59834;52.124;5.422;2022-08-19T00:48:50;6.20;;;2.85;;
71963;SDS011;59834;52.124;5.422;2022-08-19T00:51:27;4.77;;;2.83;;
71963;SDS011;59834;52.124;5.422;2022-08-19T00:53:59;2.83;;;2.58;;
71963;SDS011;59834;52.124;5.422;2022-08-19T01:00:39;4.63;;;2.70;;
71963;SDS011;59834;52.124;5.422;2022-08-19T01:03:11;5.13;;;2.30;;
71963;SDS011;59834;52.124;5.422;2022-08-19T01:06:20;3.60;;;2.90;;
71963;SDS011;59834;52.124;5.422;2022-08-19T01:08:54;6.57;;;3.05;;
71963;SDS011;59834;52.124;5.422;2022-08-19T01:11:24;3.15;;;2.80;;
71963;SDS011;59834;52.124;5.422;2022-08-19T01:17:10;3.10;;;2.67;;
71963;SDS011;59834;52.124;5.422;2022-08-19T01:19:51;4.30;;;1.77;;
71963;SDS011;59834;52.124;5.422;2022-08-19T01:22:30;2.42;;;1.52;;
71963;SDS011;59834;52.124;5.422;2022-08-19T01:25:17;2.35;;;1.25;;
71963;SDS011;59834;52.124;5.422;2022-08-19T01:31:12;2.30;;;1.73;;
71963;SDS011;59834;52.124;5.422;2022-08-19T01:36:48;2.47;;;1.15;;
71963;SDS011;59834;52.124;5.422;2022-08-19T01:39:54;1.30;;;0.77;;
71963;SDS011;59834;52.124;5.422;2022-08-19T01:42:32;1.25;;;0.68;;
71963;SDS011;59834;52.124;5.422;2022-08-19T01:45:00;1.35;;;0.93;;
71963;SDS011;59834;52.124;5.422;2022-08-19T01:47:31;1.00;;;0.70;;
71963;SDS011;59834;52.124;5.422;2022-08-19T01:50:13;5.28;;;1.40;;
71963;SDS011;59834;52.124;5.422;2022-08-19T01:56:13;1.75;;;0.95;;
71963;SDS011;59834;52.124;5.422;2022-08-19T01:59:05;3.35;;;1.20;;
71963;SDS011;59834;52.124;5.422;2022-08-19T02:01:43;4.90;;;1.00;;
71963;SDS011;59834;52.124;5.422;2022-08-19T02:04:41;2.67;;;1.40;;
71963;SDS011;59834;52.124;5.422;2022-08-19T02:07:32;3.17;;;1.10;;
71963;SDS011;59834;52.124;5.422;2022-08-19T02:10:04;2.55;;;0.52;;
71963;SDS011;59834;52.124;5.422;2022-08-19T02:13:18;1.15;;;0.35;;
71963;SDS011;59834;52.124;5.422;2022-08-19T02:19:01;1.52;;;0.80;;
71963;SDS011;59834;52.124;5.422;2022-08-19T02:21:37;2.03;;;1.08;;
71963;SDS011;59834;52.124;5.422;2022-08-19T02:24:22;3.03;;;1.27;;
71963;SDS011;59834;52.124;5.422;2022-08-19T02:27:11;3.78;;;1.17;;
71963;SDS011;59834;52.124;5.422;2022-08-19T02:29:41;2.00;;;0.73;;
71963;SDS011;59834;52.124;5.422;2022-08-19T02:32:14;2.55;;;1.55;;
71963;SDS011;59834;52.124;5.422;2022-08-19T02:35:00;2.40;;;1.42;;
71963;SDS011;59834;52.124;5.422;2022-08-19T02:37:40;2.30;;;1.25;;
71963;SDS011;59834;52.124;5.422;2022-08-19T02:40:37;4.47;;;1.48;;
71963;SDS011;59834;52.124;5.422;2022-08-19T02:43:19;1.90;;;0.90;;
71963;SDS011;59834;52.124;5.422;2022-08-19T02:46:20;5.50;;;1.10;;
71963;SDS011;59834;52.124;5.422;2022-08-19T02:49:08;4.70;;;1.98;;
71963;SDS011;59834;52.124;5.422;2022-08-19T02:51:41;6.53;;;1.63;;
71963;SDS011;59834;52.124;5.422;2022-08-19T02:57:37;7.70;;;3.90;;
71963;SDS011;59834;52.124;5.422;2022-08-19T03:00:06;10.57;;;4.63;;
71963;SDS011;59834;52.124;5.422;2022-08-19T03:02:44;4.10;;;3.63;;
71963;SDS011;59834;52.124;5.422;2022-08-19T03:05:14;4.50;;;3.80;;
71963;SDS011;59834;52.124;5.422;2022-08-19T03:07:44;6.63;;;3.88;;
71963;SDS011;59834;52.124;5.422;2022-08-19T03:10:13;8.13;;;4.00;;
71963;SDS011;59834;52.124;5.422;2022-08-19T03:12:58;5.10;;;3.63;;
71963;SDS011;59834;52.124;5.422;2022-08-19T03:15:32;7.55;;;3.30;;
71963;SDS011;59834;52.124;5.422;2022-08-19T03:17:59;8.00;;;5.00;;
71963;SDS011;59834;52.124;5.422;2022-08-19T03:20:27;23.27;;;5.05;;
71963;SDS011;59834;52.124;5.422;2022-08-19T03:22:56;15.20;;;4.50;;
71963;SDS011;59834;52.124;5.422;2022-08-19T03:25:22;15.32;;;5.32;;
71963;SDS011;59834;52.124;5.422;2022-08-19T03:27:49;15.38;;;5.03;;
71963;SDS011;59834;52.124;5.422;2022-08-19T03:30:17;15.43;;;5.22;;
71963;SDS011;59834;52.124;5.422;2022-08-19T03:32:55;15.40;;;5.30;;
71963;SDS011;59834;52.124;5.422;2022-08-19T03:35:23;16.60;;;4.73;;
71963;SDS011;59834;52.124;5.422;2022-08-19T03:37:53;8.23;;;5.13;;
71963;SDS011;59834;52.124;5.422;2022-08-19T03:40:31;6.05;;;4.90;;
71963;SDS011;59834;52.124;5.422;2022-08-19T03:43:26;6.18;;;4.25;;
71963;SDS011;59834;52.124;5.422;2022-08-19T03:48:50;7.17;;;3.63;;
71963;SDS011;59834;52.124;5.422;2022-08-19T03:51:41;4.80;;;3.72;;
71963;SDS011;59834;52.124;5.422;2022-08-19T03:58:19;5.93;;;2.03;;
71963;SDS011;59834;52.124;5.422;2022-08-19T04:01:02;4.75;;;2.40;;
71963;SDS011;59834;52.124;5.422;2022-08-19T04:04:11;2.10;;;1.60;;
71963;SDS011;59834;52.124;5.422;2022-08-19T04:06:41;1.85;;;1.15;;
71963;SDS011;59834;52.124;5.422;2022-08-19T04:09:10;7.68;;;1.10;;
71963;SDS011;59834;52.124;5.422;2022-08-19T04:11:43;4.10;;;0.60;;
71963;SDS011;59834;52.124;5.422;2022-08-19T04:14:46;1.92;;;0.63;;
71963;SDS011;59834;52.124;5.422;2022-08-19T04:17:17;2.60;;;0.90;;
71963;SDS011;59834;52.124;5.422;2022-08-19T04:20:01;2.22;;;1.38;;
71963;SDS011;59834;52.124;5.422;2022-08-19T04:22:46;5.15;;;1.75;;
71963;SDS011;59834;52.124;5.422;2022-08-19T04:25:46;3.85;;;2.40;;
71963;SDS011;59834;52.124;5.422;2022-08-19T04:28:31;10.32;;;2.15;;
71963;SDS011;59834;52.124;5.422;2022-08-19T04:31:03;31.57;;;2.80;;
71963;SDS011;59834;52.124;5.422;2022-08-19T04:36:57;6.13;;;3.05;;
71963;SDS011;59834;52.124;5.422;2022-08-19T04:40:19;4.03;;;2.42;;
71963;SDS011;59834;52.124;5.422;2022-08-19T04:43:19;4.00;;;2.92;;
71963;SDS011;59834;52.124;5.422;2022-08-19T04:46:06;6.47;;;3.47;;
71963;SDS011;59834;52.124;5.422;2022-08-19T04:48:49;4.47;;;3.47;;
71963;SDS011;59834;52.124;5.422;2022-08-19T04:51:31;6.15;;;3.75;;
71963;SDS011;59834;52.124;5.422;2022-08-19T04:54:44;12.70;;;4.15;;
71963;SDS011;59834;52.124;5.422;2022-08-19T04:57:26;7.70;;;4.30;;
71963;SDS011;59834;52.124;5.422;2022-08-19T05:00:07;4.53;;;3.17;;
71963;SDS011;59834;52.124;5.422;2022-08-19T05:02:37;9.18;;;3.65;;
71963;SDS011;59834;52.124;5.422;2022-08-19T05:05:27;5.32;;;3.10;;
71963;SDS011;59834;52.124;5.422;2022-08-19T05:08:13;8.10;;;3.15;;
71963;SDS011;59834;52.124;5.422;2022-08-19T05:11:11;8.00;;;4.13;;
71963;SDS011;59834;52.124;5.422;2022-08-19T05:17:50;4.90;;;3.85;;
71963;SDS011;59834;52.124;5.422;2022-08-19T05:20:46;3.80;;;3.30;;
71963;SDS011;59834;52.124;5.422;2022-08-19T05:23:39;4.72;;;3.88;;
71963;SDS011;59834;52.124;5.422;2022-08-19T05:26:13;5.78;;;3.42;;
71963;SDS011;59834;52.124;5.422;2022-08-19T05:28:40;5.23;;;3.63;;
71963;SDS011;59834;52.124;5.422;2022-08-19T05:31:14;8.45;;;5.00;;
71963;SDS011;59834;52.124;5.422;2022-08-19T05:33:46;4.80;;;4.15;;
71963;SDS011;59834;52.124;5.422;2022-08-19T05:36:28;7.97;;;4.70;;
71963;SDS011;59834;52.124;5.422;2022-08-19T05:39:02;5.60;;;4.97;;
71963;SDS011;59834;52.124;5.422;2022-08-19T05:41:34;5.97;;;5.13;;
71963;SDS011;59834;52.124;5.422;2022-08-19T05:44:13;6.75;;;4.55;;
71963;SDS011;59834;52.124;5.422;2022-08-19T05:46:46;7.47;;;4.88;;
71963;SDS011;59834;52.124;5.422;2022-08-19T05:49:47;7.03;;;5.90;;
71963;SDS011;59834;52.124;5.422;2022-08-19T05:52:15;7.50;;;4.40;;
71963;SDS011;59834;52.124;5.422;2022-08-19T05:54:44;4.93;;;3.37;;
71963;SDS011;59834;52.124;5.422;2022-08-19T05:57:17;6.38;;;4.13;;
71963;SDS011;59834;52.124;5.422;2022-08-19T05:59:45;3.55;;;3.25;;
71963;SDS011;59834;52.124;5.422;2022-08-19T06:02:27;4.10;;;3.70;;
71963;SDS011;59834;52.124;5.422;2022-08-19T06:04:57;6.40;;;4.82;;
71963;SDS011;59834;52.124;5.422;2022-08-19T06:07:24;4.93;;;4.43;;
71963;SDS011;59834;52.124;5.422;2022-08-19T06:09:50;5.90;;;4.38;;
71963;SDS011;59834;52.124;5.422;2022-08-19T06:12:26;7.22;;;5.72;;
71963;SDS011;59834;52.124;5.422;2022-08-19T06:14:57;14.15;;;6.90;;
71963;SDS011;59834;52.124;5.422;2022-08-19T06:17:27;9.57;;;8.00;;
71963;SDS011;59834;52.124;5.422;2022-08-19T06:19:57;17.33;;;11.53;;
71963;SDS011;59834;52.124;5.422;2022-08-19T06:22:25;21.92;;;12.65;;
71963;SDS011;59834;52.124;5.422;2022-08-19T06:24:52;20.55;;;14.18;;
71963;SDS011;59834;52.124;5.422;2022-08-19T06:27:20;21.45;;;14.93;;
71963;SDS011;59834;52.124;5.422;2022-08-19T06:29:47;25.23;;;16.55;;
71963;SDS011;59834;52.124;5.422;2022-08-19T06:32:15;25.73;;;16.03;;
71963;SDS011;59834;52.124;5.422;2022-08-19T06:34:42;23.92;;;16.65;;
71963;SDS011;59834;52.124;5.422;2022-08-19T06:37:10;28.90;;;18.10;;
71963;SDS011;59834;52.124;5.422;2022-08-19T06:39:37;27.63;;;18.08;;
71963;SDS011;59834;52.124;5.422;2022-08-19T06:42:06;25.23;;;17.70;;
71963;SDS011;59834;52.124;5.422;2022-08-19T06:44:36;26.33;;;17.87;;
71963;SDS011;59834;52.124;5.422;2022-08-19T06:47:09;33.45;;;20.00;;
71963;SDS011;59834;52.124;5.422;2022-08-19T06:49:52;29.40;;;19.90;;
71963;SDS011;59834;52.124;5.422;2022-08-19T06:52:26;31.75;;;20.55;;
71963;SDS011;59834;52.124;5.422;2022-08-19T06:54:53;38.42;;;21.38;;
71963;SDS011;59834;52.124;5.422;2022-08-19T06:57:25;39.43;;;21.73;;
71963;SDS011;59834;52.124;5.422;2022-08-19T06:59:52;44.70;;;22.45;;
71963;SDS011;59834;52.124;5.422;2022-08-19T07:02:19;38.50;;;20.67;;
71963;SDS011;59834;52.124;5.422;2022-08-19T07:04:47;40.38;;;20.25;;
71963;SDS011;59834;52.124;5.422;2022-08-19T07:07:17;49.20;;;22.08;;
71963;SDS011;59834;52.124;5.422;2022-08-19T07:09:47;45.63;;;20.87;;
71963;SDS011;59834;52.124;5.422;2022-08-19T07:12:29;44.47;;;20.25;;
71963;SDS011;59834;52.124;5.422;2022-08-19T07:15:06;45.67;;;23.38;;
71963;SDS011;59834;52.124;5.422;2022-08-19T07:17:34;49.58;;;23.85;;
71963;SDS011;59834;52.124;5.422;2022-08-19T07:20:05;47.28;;;24.58;;
71963;SDS011;59834;52.124;5.422;2022-08-19T07:22:35;43.83;;;25.73;;
71963;SDS011;59834;52.124;5.422;2022-08-19T07:25:02;47.42;;;25.70;;
71963;SDS011;59834;52.124;5.422;2022-08-19T07:27:31;47.80;;;25.88;;
71963;SDS011;59834;52.124;5.422;2022-08-19T07:29:59;45.17;;;25.10;;
71963;SDS011;59834;52.124;5.422;2022-08-19T07:32:25;46.45;;;25.42;;
71963;SDS011;59834;52.124;5.422;2022-08-19T07:34:53;45.50;;;24.70;;
71963;SDS011;59834;52.124;5.422;2022-08-19T07:37:22;46.63;;;24.27;;
71963;SDS011;59834;52.124;5.422;2022-08-19T07:39:58;40.80;;;23.95;;
71963;SDS011;59834;52.124;5.422;2022-08-19T07:42:25;46.90;;;26.30;;
71963;SDS011;59834;52.124;5.422;2022-08-19T07:44:51;49.38;;;26.90;;
71963;SDS011;59834;52.124;5.422;2022-08-19T07:47:19;45.00;;;25.57;;
71963;SDS011;59834;52.124;5.422;2022-08-19T07:50:07;48.83;;;26.75;;
71963;SDS011;59834;52.124;5.422;2022-08-19T07:52:36;41.10;;;25.52;;
71963;SDS011;59834;52.124;5.422;2022-08-19T07:55:05;43.58;;;25.85;;
71963;SDS011;59834;52.124;5.422;2022-08-19T07:57:54;46.25;;;23.60;;
71963;SDS011;59834;52.124;5.422;2022-08-19T08:00:21;37.80;;;24.00;;
71963;SDS011;59834;52.124;5.422;2022-08-19T08:02:50;37.85;;;21.90;;
71963;SDS011;59834;52.124;5.422;2022-08-19T08:05:20;37.35;;;21.17;;
71963;SDS011;59834;52.124;5.422;2022-08-19T08:08:09;39.60;;;20.63;;
71963;SDS011;59834;52.124;5.422;2022-08-19T08:10:57;35.17;;;19.58;;
71963;SDS011;59834;52.124;5.422;2022-08-19T08:13:24;31.87;;;18.23;;
71963;SDS011;59834;52.124;5.422;2022-08-19T08:15:52;30.20;;;18.23;;
71963;SDS011;59834;52.124;5.422;2022-08-19T08:18:27;30.40;;;17.75;;
71963;SDS011;59834;52.124;5.422;2022-08-19T08:20:56;31.50;;;17.83;;
71963;SDS011;59834;52.124;5.422;2022-08-19T08:23:26;29.35;;;17.40;;
71963;SDS011;59834;52.124;5.422;2022-08-19T08:25:57;24.77;;;16.80;;
71963;SDS011;59834;52.124;5.422;2022-08-19T08:36:41;27.63;;;17.58;;
71963;SDS011;59834;52.124;5.422;2022-08-19T08:39:35;29.40;;;15.68;;
71963;SDS011;59834;52.124;5.422;2022-08-19T08:50:32;22.40;;;13.95;;
71963;SDS011;59834;52.124;5.422;2022-08-19T09:00:47;23.77;;;13.33;;
71963;SDS011;59834;52.124;5.422;2022-08-19T09:07:14;23.10;;;14.52;;
71963;SDS011;59834;52.124;5.422;2022-08-19T09:15:54;19.73;;;12.33;;
71963;SDS011;59834;52.124;5.422;2022-08-19T09:18:48;20.88;;;12.90;;
71963;SDS011;59834;52.124;5.422;2022-08-19T09:21:24;16.15;;;11.82;;
71963;SDS011;59834;52.124;5.422;2022-08-19T09:23:58;17.48;;;12.07;;
71963;SDS011;59834;52.124;5.422;2022-08-19T09:26:25;24.38;;;13.93;;
71963;SDS011;59834;52.124;5.422;2022-08-19T09:29:14;17.63;;;11.57;;
71963;SDS011;59834;52.124;5.422;2022-08-19T09:31:42;20.27;;;12.63;;
71963;SDS011;59834;52.124;5.422;2022-08-19T09:34:12;18.80;;;12.38;;
71963;SDS011;59834;52.124;5.422;2022-08-19T09:36:47;21.67;;;13.25;;
71963;SDS011;59834;52.124;5.422;2022-08-19T09:39:20;21.15;;;12.93;;
71963;SDS011;59834;52.124;5.422;2022-08-19T09:41:49;20.87;;;12.03;;
71963;SDS011;59834;52.124;5.422;2022-08-19T09:44:17;20.05;;;12.48;;
71963;SDS011;59834;52.124;5.422;2022-08-19T09:46:44;17.92;;;11.85;;
71963;SDS011;59834;52.124;5.422;2022-08-19T09:49:14;20.33;;;12.10;;
71963;SDS011;59834;52.124;5.422;2022-08-19T09:51:46;15.25;;;9.95;;
71963;SDS011;59834;52.124;5.422;2022-08-19T09:54:17;21.13;;;10.60;;
71963;SDS011;59834;52.124;5.422;2022-08-19T09:56:50;19.08;;;10.13;;
71963;SDS011;59834;52.124;5.422;2022-08-19T09:59:21;22.95;;;10.15;;
71963;SDS011;59834;52.124;5.422;2022-08-19T10:01:51;38.17;;;10.73;;
71963;SDS011;59834;52.124;5.422;2022-08-19T10:04:19;36.33;;;9.75;;
71963;SDS011;59834;52.124;5.422;2022-08-19T10:07:40;17.60;;;9.00;;
71963;SDS011;59834;52.124;5.422;2022-08-19T10:10:37;44.28;;;11.63;;
71963;SDS011;59834;52.124;5.422;2022-08-19T10:13:17;45.67;;;10.27;;
71963;SDS011;59834;52.124;5.422;2022-08-19T10:15:54;22.58;;;9.60;;
71963;SDS011;59834;52.124;5.422;2022-08-19T10:18:28;33.80;;;11.15;;
71963;SDS011;59834;52.124;5.422;2022-08-19T10:21:16;28.53;;;11.53;;
71963;SDS011;59834;52.124;5.422;2022-08-19T10:24:00;17.75;;;10.15;;
71963;SDS011;59834;52.124;5.422;2022-08-19T10:26:32;16.88;;;10.38;;
71963;SDS011;59834;52.124;5.422;2022-08-19T10:29:02;13.85;;;10.05;;
71963;SDS011;59834;52.124;5.422;2022-08-19T10:31:34;13.25;;;9.63;;
71963;SDS011;59834;52.124;5.422;2022-08-19T10:34:21;15.40;;;11.17;;
71963;SDS011;59834;52.124;5.422;2022-08-19T10:36:54;18.33;;;11.43;;
71963;SDS011;59834;52.124;5.422;2022-08-19T10:40:11;13.35;;;9.88;;
71963;SDS011;59834;52.124;5.422;2022-08-19T10:45:55;15.65;;;11.40;;
71963;SDS011;59834;52.124;5.422;2022-08-19T10:48:41;17.63;;;12.13;;
71963;SDS011;59834;52.124;5.422;2022-08-19T10:51:11;13.13;;;10.57;;
71963;SDS011;59834;52.124;5.422;2022-08-19T10:54:00;19.95;;;10.82;;
71963;SDS011;59834;52.124;5.422;2022-08-19T10:56:38;15.38;;;11.65;;
71963;SDS011;59834;52.124;5.422;2022-08-19T11:00:20;20.35;;;12.25;;
71963;SDS011;59834;52.124;5.422;2022-08-19T11:03:09;12.67;;;11.27;;
71963;SDS011;59834;52.124;5.422;2022-08-19T11:05:39;20.98;;;13.52;;
71963;SDS011;59834;52.124;5.422;2022-08-19T11:08:35;18.75;;;12.98;;
71963;SDS011;59834;52.124;5.422;2022-08-19T11:11:12;19.42;;;13.27;;
71963;SDS011;59834;52.124;5.422;2022-08-19T11:14:03;22.55;;;15.50;;
71963;SDS011;59834;52.124;5.422;2022-08-19T11:16:34;20.70;;;14.47;;
71963;SDS011;59834;52.124;5.422;2022-08-19T11:19:26;20.08;;;14.68;;
71963;SDS011;59834;52.124;5.422;2022-08-19T11:21:58;20.55;;;14.48;;
71963;SDS011;59834;52.124;5.422;2022-08-19T11:24:29;17.58;;;14.55;;
71963;SDS011;59834;52.124;5.422;2022-08-19T11:27:00;20.73;;;13.95;;
71963;SDS011;59834;52.124;5.422;2022-08-19T11:29:32;28.90;;;18.07;;
71963;SDS011;59834;52.124;5.422;2022-08-19T11:32:05;44.58;;;19.02;;
71963;SDS011;59834;52.124;5.422;2022-08-19T11:34:33;43.45;;;18.60;;
71963;SDS011;59834;52.124;5.422;2022-08-19T11:37:01;61.58;;;18.70;;
71963;SDS011;59834;52.124;5.422;2022-08-19T11:39:32;74.75;;;21.02;;
71963;SDS011;59834;52.124;5.422;2022-08-19T11:42:00;22.03;;;15.43;;
71963;SDS011;59834;52.124;5.422;2022-08-19T11:44:30;24.13;;;18.10;;
71963;SDS011;59834;52.124;5.422;2022-08-19T11:46:57;26.80;;;17.15;;
71963;SDS011;59834;52.124;5.422;2022-08-19T11:49:34;24.60;;;16.77;;
71963;SDS011;59834;52.124;5.422;2022-08-19T11:52:02;66.72;;;18.98;;
71963;SDS011;59834;52.124;5.422;2022-08-19T11:54:29;35.23;;;17.90;;
71963;SDS011;59834;52.124;5.422;2022-08-19T11:56:57;24.98;;;15.15;;
71963;SDS011;59834;52.124;5.422;2022-08-19T11:59:23;26.52;;;16.50;;
71963;SDS011;59834;52.124;5.422;2022-08-19T12:01:50;28.00;;;16.92;;
71963;SDS011;59834;52.124;5.422;2022-08-19T12:04:17;21.80;;;15.35;;
71963;SDS011;59834;52.124;5.422;2022-08-19T12:06:46;27.83;;;15.73;;
71963;SDS011;59834;52.124;5.422;2022-08-19T12:09:13;40.58;;;17.50;;
71963;SDS011;59834;52.124;5.422;2022-08-19T12:11:41;26.10;;;15.82;;
71963;SDS011;59834;52.124;5.422;2022-08-19T12:14:12;21.33;;;15.90;;
71963;SDS011;59834;52.124;5.422;2022-08-19T12:16:43;18.67;;;14.50;;
71963;SDS011;59834;52.124;5.422;2022-08-19T12:19:16;21.83;;;13.50;;
71963;SDS011;59834;52.124;5.422;2022-08-19T12:21:48;20.27;;;14.35;;
71963;SDS011;59834;52.124;5.422;2022-08-19T12:24:19;16.60;;;12.85;;
71963;SDS011;59834;52.124;5.422;2022-08-19T12:26:49;17.25;;;13.48;;
71963;SDS011;59834;52.124;5.422;2022-08-19T12:29:19;17.65;;;13.15;;
71963;SDS011;59834;52.124;5.422;2022-08-19T12:31:49;19.07;;;11.77;;
71963;SDS011;59834;52.124;5.422;2022-08-19T12:34:16;21.85;;;13.93;;
71963;SDS011;59834;52.124;5.422;2022-08-19T12:36:44;17.63;;;13.30;;
71963;SDS011;59834;52.124;5.422;2022-08-19T12:39:10;36.03;;;14.25;;
71963;SDS011;59834;52.124;5.422;2022-08-19T12:41:38;22.92;;;13.77;;
71963;SDS011;59834;52.124;5.422;2022-08-19T12:44:20;123.57;;;22.87;;
71963;SDS011;59834;52.124;5.422;2022-08-19T12:46:54;47.15;;;16.10;;
71963;SDS011;59834;52.124;5.422;2022-08-19T12:49:22;40.15;;;14.32;;
71963;SDS011;59834;52.124;5.422;2022-08-19T12:52:10;24.35;;;13.60;;
71963;SDS011;59834;52.124;5.422;2022-08-19T12:54:42;17.20;;;12.00;;
71963;SDS011;59834;52.124;5.422;2022-08-19T12:57:09;17.80;;;10.87;;
71963;SDS011;59834;52.124;5.422;2022-08-19T12:59:37;16.02;;;11.88;;
71963;SDS011;59834;52.124;5.422;2022-08-19T13:02:04;16.42;;;11.32;;
71963;SDS011;59834;52.124;5.422;2022-08-19T13:04:34;22.17;;;10.50;;
71963;SDS011;59834;52.124;5.422;2022-08-19T13:07:07;28.67;;;12.40;;
71963;SDS011;59834;52.124;5.422;2022-08-19T13:09:35;16.57;;;11.50;;
71963;SDS011;59834;52.124;5.422;2022-08-19T13:12:02;18.33;;;11.30;;
71963;SDS011;59834;52.124;5.422;2022-08-19T13:14:42;17.17;;;11.90;;
71963;SDS011;59834;52.124;5.422;2022-08-19T13:17:09;13.50;;;11.20;;
71963;SDS011;59834;52.124;5.422;2022-08-19T13:19:37;14.73;;;11.32;;
71963;SDS011;59834;52.124;5.422;2022-08-19T13:22:07;13.50;;;10.60;;
71963;SDS011;59834;52.124;5.422;2022-08-19T13:24:40;13.32;;;10.48;;
71963;SDS011;59834;52.124;5.422;2022-08-19T13:27:12;14.38;;;10.60;;
71963;SDS011;59834;52.124;5.422;2022-08-19T13:29:39;14.80;;;10.75;;
71963;SDS011;59834;52.124;5.422;2022-08-19T13:32:25;15.20;;;11.07;;
71963;SDS011;59834;52.124;5.422;2022-08-19T13:38:41;16.38;;;10.07;;
71963;SDS011;59834;52.124;5.422;2022-08-19T13:41:13;19.00;;;10.65;;
71963;SDS011;59834;52.124;5.422;2022-08-19T13:44:05;18.33;;;10.43;;
71963;SDS011;59834;52.124;5.422;2022-08-19T13:46:32;14.35;;;10.55;;
71963;SDS011;59834;52.124;5.422;2022-08-19T13:49:08;16.63;;;10.77;;
71963;SDS011;59834;52.124;5.422;2022-08-19T13:52:04;11.60;;;10.00;;
71963;SDS011;59834;52.124;5.422;2022-08-19T13:54:46;17.83;;;9.23;;
71963;SDS011;59834;52.124;5.422;2022-08-19T13:57:26;14.93;;;10.65;;
71963;SDS011;59834;52.124;5.422;2022-08-19T14:00:08;15.60;;;9.32;;
71963;SDS011;59834;52.124;5.422;2022-08-19T14:02:37;10.67;;;6.13;;
71963;SDS011;59834;52.124;5.422;2022-08-19T14:05:08;10.82;;;6.80;;
71963;SDS011;59834;52.124;5.422;2022-08-19T14:07:35;6.70;;;6.10;;
71963;SDS011;59834;52.124;5.422;2022-08-19T14:10:07;7.10;;;5.80;;
71963;SDS011;59834;52.124;5.422;2022-08-19T14:12:40;9.27;;;4.65;;
71963;SDS011;59834;52.124;5.422;2022-08-19T14:15:25;5.63;;;5.13;;
71963;SDS011;59834;52.124;5.422;2022-08-19T14:17:56;7.70;;;5.32;;
71963;SDS011;59834;52.124;5.422;2022-08-19T14:25:46;11.52;;;7.75;;
71963;SDS011;59834;52.124;5.422;2022-08-19T14:28:17;10.18;;;7.72;;
71963;SDS011;59834;52.124;5.422;2022-08-19T14:30:44;9.57;;;7.90;;
71963;SDS011;59834;52.124;5.422;2022-08-19T14:33:11;9.43;;;8.07;;
71963;SDS011;59834;52.124;5.422;2022-08-19T14:35:39;11.18;;;8.23;;
71963;SDS011;59834;52.124;5.422;2022-08-19T14:38:14;12.75;;;8.20;;
71963;SDS011;59834;52.124;5.422;2022-08-19T14:40:42;12.85;;;8.77;;
71963;SDS011;59834;52.124;5.422;2022-08-19T14:43:12;9.30;;;6.33;;
71963;SDS011;59834;52.124;5.422;2022-08-19T14:45:41;8.77;;;6.30;;
71963;SDS011;59834;52.124;5.422;2022-08-19T14:48:09;9.38;;;6.45;;
71963;SDS011;59834;52.124;5.422;2022-08-19T14:50:53;7.30;;;6.62;;
71963;SDS011;59834;52.124;5.422;2022-08-19T14:56:25;8.30;;;6.20;;
71963;SDS011;59834;52.124;5.422;2022-08-19T14:59:02;7.70;;;5.35;;
71963;SDS011;59834;52.124;5.422;2022-08-19T15:01:29;5.05;;;4.55;;
71963;SDS011;59834;52.124;5.422;2022-08-19T15:04:03;5.82;;;3.78;;
71963;SDS011;59834;52.124;5.422;2022-08-19T15:47:38;3.37;;;2.53;;
71963;SDS011;59834;52.124;5.422;2022-08-19T15:50:12;4.07;;;2.40;;
71963;SDS011;59834;52.124;5.422;2022-08-19T15:52:49;5.43;;;2.65;;
71963;SDS011;59834;52.124;5.422;2022-08-19T15:55:19;2.75;;;2.25;;
71963;SDS011;59834;52.124;5.422;2022-08-19T15:58:09;3.28;;;2.90;;
71963;SDS011;59834;52.124;5.422;2022-08-19T16:00:57;3.20;;;2.50;;
71963;SDS011;59834;52.124;5.422;2022-08-19T16:03:46;3.15;;;2.50;;
71963;SDS011;59834;52.124;5.422;2022-08-19T16:06:47;4.53;;;2.90;;
71963;SDS011;59834;52.124;5.422;2022-08-19T16:09:18;4.35;;;3.45;;
71963;SDS011;59834;52.124;5.422;2022-08-19T16:11:53;10.25;;;2.80;;
71963;SDS011;59834;52.124;5.422;2022-08-19T16:14:26;3.77;;;3.47;;
71963;SDS011;59834;52.124;5.422;2022-08-19T16:16:54;4.35;;;3.28;;
71963;SDS011;59834;52.124;5.422;2022-08-19T16:19:22;4.22;;;3.13;;
71963;SDS011;59834;52.124;5.422;2022-08-19T16:21:50;4.60;;;3.63;;
71963;SDS011;59834;52.124;5.422;2022-08-19T16:24:19;4.53;;;3.50;;
71963;SDS011;59834;52.124;5.422;2022-08-19T16:26:47;5.70;;;3.37;;
71963;SDS011;59834;52.124;5.422;2022-08-19T16:29:14;4.95;;;3.70;;
71963;SDS011;59834;52.124;5.422;2022-08-19T16:31:59;4.07;;;3.67;;
71963;SDS011;59834;52.124;5.422;2022-08-19T16:34:28;5.15;;;3.78;;
71963;SDS011;59834;52.124;5.422;2022-08-19T16:36:55;4.88;;;4.43;;
71963;SDS011;59834;52.124;5.422;2022-08-19T16:39:22;5.07;;;4.07;;
71963;SDS011;59834;52.124;5.422;2022-08-19T16:41:49;5.43;;;3.92;;
71963;SDS011;59834;52.124;5.422;2022-08-19T16:44:16;5.85;;;4.05;;
71963;SDS011;59834;52.124;5.422;2022-08-19T16:46:46;5.45;;;4.40;;
71963;SDS011;59834;52.124;5.422;2022-08-19T16:49:24;3.85;;;3.45;;
71963;SDS011;59834;52.124;5.422;2022-08-19T16:52:12;4.53;;;3.60;;
71963;SDS011;59834;52.124;5.422;2022-08-19T16:54:40;4.80;;;3.60;;
71963;SDS011;59834;52.124;5.422;2022-08-19T16:57:08;5.22;;;3.35;;
71963;SDS011;59834;52.124;5.422;2022-08-19T16:59:37;4.13;;;3.70;;
71963;SDS011;59834;52.124;5.422;2022-08-19T17:02:13;8.68;;;5.68;;
71963;SDS011;59834;52.124;5.422;2022-08-19T17:04:40;6.33;;;5.43;;
71963;SDS011;59834;52.124;5.422;2022-08-19T17:07:08;8.63;;;4.55;;
71963;SDS011;59834;52.124;5.422;2022-08-19T17:09:35;6.95;;;5.63;;
71963;SDS011;59834;52.124;5.422;2022-08-19T17:12:03;6.05;;;5.45;;
71963;SDS011;59834;52.124;5.422;2022-08-19T17:14:30;6.47;;;5.03;;
71963;SDS011;59834;52.124;5.422;2022-08-19T17:16:56;11.63;;;6.10;;
71963;SDS011;59834;52.124;5.422;2022-08-19T17:19:23;8.80;;;5.95;;
71963;SDS011;59834;52.124;5.422;2022-08-19T17:21:49;5.53;;;5.00;;
71963;SDS011;59834;52.124;5.422;2022-08-19T17:24:16;5.35;;;4.85;;
71963;SDS011;59834;52.124;5.422;2022-08-19T17:26:42;6.35;;;4.60;;
71963;SDS011;59834;52.124;5.422;2022-08-19T17:29:09;5.97;;;4.37;;
71963;SDS011;59834;52.124;5.422;2022-08-19T17:31:35;5.93;;;4.18;;
71963;SDS011;59834;52.124;5.422;2022-08-19T17:34:03;5.78;;;3.83;;
71963;SDS011;59834;52.124;5.422;2022-08-19T17:36:30;5.63;;;4.03;;
71963;SDS011;59834;52.124;5.422;2022-08-19T17:38:58;7.10;;;3.90;;